sensor_id;sensor_type;location;lat;lon;timestamp;pressure;altitude;pressure_sealevel;temperature;humidity
72024;BME280;59889;50.700;5.440;2023-04-26T00:02:08;100349.98;;;21.65;32.41
72024;BME280;59889;50.700;5.440;2023-04-26T00:04:33;100350.78;;;21.85;32.48
72024;BME280;59889;50.700;5.440;2023-04-26T00:06:58;100346.95;;;21.51;32.58
72024;BME280;59889;50.700;5.440;2023-04-26T00:09:23;100347.76;;;21.87;32.47
72024;BME280;59889;50.700;5.440;2023-04-26T00:11:48;100345.58;;;21.87;32.44
72024;BME280;59889;50.700;5.440;2023-04-26T00:14:13;100345.05;;;21.86;32.43
72024;BME280;59889;50.700;5.440;2023-04-26T00:16:38;100347.25;;;21.85;32.45
72024;BME280;59889;50.700;5.440;2023-04-26T00:19:03;100343.68;;;21.78;32.57
72024;BME280;59889;50.700;5.440;2023-04-26T00:21:28;100344.16;;;21.83;32.49
72024;BME280;59889;50.700;5.440;2023-04-26T00:23:53;100341.84;;;21.30;33.05
72024;BME280;59889;50.700;5.440;2023-04-26T00:26:18;100340.72;;;21.81;32.52
72024;BME280;59889;50.700;5.440;2023-04-26T00:28:44;100343.90;;;21.73;32.63
72024;BME280;59889;50.700;5.440;2023-04-26T00:31:13;100343.75;;;21.79;32.55
72024;BME280;59889;50.700;5.440;2023-04-26T00:33:34;100344.28;;;21.63;32.77
72024;BME280;59889;50.700;5.440;2023-04-26T00:35:59;100343.49;;;21.54;32.83
72024;BME280;59889;50.700;5.440;2023-04-26T00:38:24;100343.03;;;21.70;32.67
72024;BME280;59889;50.700;5.440;2023-04-26T00:40:49;100343.82;;;21.78;32.57
72024;BME280;59889;50.700;5.440;2023-04-26T00:43:14;100341.61;;;21.80;32.51
72024;BME280;59889;50.700;5.440;2023-04-26T00:45:40;100341.82;;;21.55;32.53
72024;BME280;59889;50.700;5.440;2023-04-26T00:48:04;100343.16;;;21.76;32.59
72024;BME280;59889;50.700;5.440;2023-04-26T00:50:30;100344.28;;;21.57;32.52
72024;BME280;59889;50.700;5.440;2023-04-26T00:52:55;100345.85;;;22.00;32.55
72024;BME280;59889;50.700;5.440;2023-04-26T00:55:20;100345.25;;;21.79;32.56
72024;BME280;59889;50.700;5.440;2023-04-26T00:57:45;100346.93;;;21.89;32.40
72024;BME280;59889;50.700;5.440;2023-04-26T01:00:10;100347.44;;;21.60;32.49
72024;BME280;59889;50.700;5.440;2023-04-26T01:02:34;100344.48;;;21.61;32.45
72024;BME280;59889;50.700;5.440;2023-04-26T01:05:00;100342.98;;;21.80;32.52
72024;BME280;59889;50.700;5.440;2023-04-26T01:07:25;100344.35;;;21.76;32.57
72024;BME280;59889;50.700;5.440;2023-04-26T01:09:50;100342.62;;;21.84;32.46
72024;BME280;59889;50.700;5.440;2023-04-26T01:12:15;100341.49;;;21.54;32.55
72024;BME280;59889;50.700;5.440;2023-04-26T01:14:40;100343.23;;;21.41;32.67
72024;BME280;59889;50.700;5.440;2023-04-26T01:17:05;100343.78;;;21.72;32.63
72024;BME280;59889;50.700;5.440;2023-04-26T01:19:30;100343.23;;;21.45;32.67
72024;BME280;59889;50.700;5.440;2023-04-26T01:21:55;100344.28;;;21.78;32.55
72024;BME280;59889;50.700;5.440;2023-04-26T01:24:20;100347.43;;;21.77;32.55
72024;BME280;59889;50.700;5.440;2023-04-26T01:26:45;100347.34;;;21.78;32.55
72024;BME280;59889;50.700;5.440;2023-04-26T01:29:14;100347.65;;;21.77;32.55
72024;BME280;59889;50.700;5.440;2023-04-26T01:31:35;100344.72;;;21.49;32.60
72024;BME280;59889;50.700;5.440;2023-04-26T01:34:00;100346.82;;;21.78;32.52
72024;BME280;59889;50.700;5.440;2023-04-26T01:36:25;100349.25;;;21.45;32.84
72024;BME280;59889;50.700;5.440;2023-04-26T01:38:50;100343.20;;;21.73;32.63
72024;BME280;59889;50.700;5.440;2023-04-26T01:41:15;100341.13;;;21.69;32.63
72024;BME280;59889;50.700;5.440;2023-04-26T01:43:40;100339.36;;;21.65;32.69
72024;BME280;59889;50.700;5.440;2023-04-26T01:46:05;100339.75;;;21.71;32.63
72024;BME280;59889;50.700;5.440;2023-04-26T01:48:31;100338.61;;;21.67;32.68
72024;BME280;59889;50.700;5.440;2023-04-26T01:50:56;100338.40;;;21.61;32.74
72024;BME280;59889;50.700;5.440;2023-04-26T01:53:21;100338.67;;;21.64;32.69
72024;BME280;59889;50.700;5.440;2023-04-26T01:55:46;100339.91;;;21.74;32.57
72024;BME280;59889;50.700;5.440;2023-04-26T01:58:11;100339.17;;;21.63;32.69
72024;BME280;59889;50.700;5.440;2023-04-26T02:00:36;100335.44;;;21.70;32.62
72024;BME280;59889;50.700;5.440;2023-04-26T02:03:01;100334.17;;;21.43;32.62
72024;BME280;59889;50.700;5.440;2023-04-26T02:05:26;100334.93;;;21.68;32.64
72024;BME280;59889;50.700;5.440;2023-04-26T02:07:51;100332.79;;;21.62;32.65
72024;BME280;59889;50.700;5.440;2023-04-26T02:10:16;100334.72;;;21.46;32.84
72024;BME280;59889;50.700;5.440;2023-04-26T02:12:41;100336.38;;;21.43;32.85
72024;BME280;59889;50.700;5.440;2023-04-26T02:15:07;100336.42;;;21.65;32.63
72024;BME280;59889;50.700;5.440;2023-04-26T02:17:32;100334.43;;;21.63;32.66
72024;BME280;59889;50.700;5.440;2023-04-26T02:19:56;100331.90;;;21.36;32.69
72024;BME280;59889;50.700;5.440;2023-04-26T02:22:22;100333.47;;;21.63;32.66
72024;BME280;59889;50.700;5.440;2023-04-26T02:24:48;100339.17;;;21.42;32.93
72024;BME280;59889;50.700;5.440;2023-04-26T02:27:11;100335.91;;;21.57;32.75
72024;BME280;59889;50.700;5.440;2023-04-26T02:29:37;100333.44;;;21.40;32.66
72024;BME280;59889;50.700;5.440;2023-04-26T02:32:02;100332.88;;;21.65;32.64
72024;BME280;59889;50.700;5.440;2023-04-26T02:34:27;100330.65;;;21.56;32.70
72024;BME280;59889;50.700;5.440;2023-04-26T02:36:52;100326.97;;;21.67;32.59
72024;BME280;59889;50.700;5.440;2023-04-26T02:39:17;100322.05;;;21.45;32.56
72024;BME280;59889;50.700;5.440;2023-04-26T02:41:42;100316.57;;;20.98;32.80
72024;BME280;59889;50.700;5.440;2023-04-26T02:44:07;100315.61;;;21.60;32.69
72024;BME280;59889;50.700;5.440;2023-04-26T02:46:32;100314.13;;;21.14;33.11
72024;BME280;59889;50.700;5.440;2023-04-26T02:48:57;100313.86;;;21.62;32.63
72024;BME280;59889;50.700;5.440;2023-04-26T02:51:22;100311.28;;;21.57;32.70
72024;BME280;59889;50.700;5.440;2023-04-26T02:53:47;100310.01;;;21.63;32.62
72024;BME280;59889;50.700;5.440;2023-04-26T02:56:12;100306.56;;;21.60;32.62
72024;BME280;59889;50.700;5.440;2023-04-26T02:58:37;100302.97;;;21.51;32.75
72024;BME280;59889;50.700;5.440;2023-04-26T03:01:02;100303.44;;;21.66;32.56
72024;BME280;59889;50.700;5.440;2023-04-26T03:03:27;100305.44;;;21.39;32.61
72024;BME280;59889;50.700;5.440;2023-04-26T03:05:53;100307.28;;;21.46;32.76
72024;BME280;59889;50.700;5.440;2023-04-26T03:08:18;100304.26;;;21.56;32.65
72024;BME280;59889;50.700;5.440;2023-04-26T03:10:43;100304.52;;;21.53;32.66
72024;BME280;59889;50.700;5.440;2023-04-26T03:13:08;100304.59;;;21.53;32.69
72024;BME280;59889;50.700;5.440;2023-04-26T03:15:33;100304.21;;;21.47;32.80
72024;BME280;59889;50.700;5.440;2023-04-26T03:17:58;100301.10;;;21.54;32.66
72024;BME280;59889;50.700;5.440;2023-04-26T03:20:23;100301.23;;;21.61;32.83
72024;BME280;59889;50.700;5.440;2023-04-26T03:22:48;100304.28;;;21.49;32.73
72024;BME280;59889;50.700;5.440;2023-04-26T03:25:13;100300.68;;;21.33;32.89
72024;BME280;59889;50.700;5.440;2023-04-26T03:27:38;100303.85;;;21.42;32.82
72024;BME280;59889;50.700;5.440;2023-04-26T03:30:04;100303.14;;;21.17;33.12
72024;BME280;59889;50.700;5.440;2023-04-26T03:32:28;100296.20;;;20.73;33.58
72024;BME280;59889;50.700;5.440;2023-04-26T03:34:53;100285.88;;;20.90;33.37
72024;BME280;59889;50.700;5.440;2023-04-26T03:37:18;100281.77;;;21.53;32.93
72024;BME280;59889;50.700;5.440;2023-04-26T03:39:43;100286.94;;;21.20;33.02
72024;BME280;59889;50.700;5.440;2023-04-26T03:42:08;100288.98;;;21.41;32.80
72024;BME280;59889;50.700;5.440;2023-04-26T03:44:33;100289.80;;;21.03;33.18
72024;BME280;59889;50.700;5.440;2023-04-26T03:46:59;100289.93;;;21.23;33.01
72024;BME280;59889;50.700;5.440;2023-04-26T03:49:24;100292.05;;;21.40;32.82
72024;BME280;59889;50.700;5.440;2023-04-26T03:51:49;100287.51;;;21.50;32.65
72024;BME280;59889;50.700;5.440;2023-04-26T03:54:14;100286.68;;;21.43;32.77
72024;BME280;59889;50.700;5.440;2023-04-26T03:56:39;100285.75;;;21.51;32.62
72024;BME280;59889;50.700;5.440;2023-04-26T03:59:04;100285.59;;;20.79;33.18
72024;BME280;59889;50.700;5.440;2023-04-26T04:01:29;100287.70;;;21.45;32.68
72024;BME280;59889;50.700;5.440;2023-04-26T04:03:54;100289.36;;;21.51;32.60
72024;BME280;59889;50.700;5.440;2023-04-26T04:06:19;100292.56;;;21.54;32.57
72024;BME280;59889;50.700;5.440;2023-04-26T04:08:44;100293.30;;;21.39;32.77
72024;BME280;59889;50.700;5.440;2023-04-26T04:11:09;100293.05;;;21.48;32.65
72024;BME280;59889;50.700;5.440;2023-04-26T04:13:34;100295.23;;;21.58;32.53
72024;BME280;59889;50.700;5.440;2023-04-26T04:15:59;100294.74;;;21.56;32.54
72024;BME280;59889;50.700;5.440;2023-04-26T04:18:24;100295.26;;;21.54;32.53
72024;BME280;59889;50.700;5.440;2023-04-26T04:20:49;100298.20;;;21.79;32.51
72024;BME280;59889;50.700;5.440;2023-04-26T04:23:15;100302.33;;;21.42;32.68
72024;BME280;59889;50.700;5.440;2023-04-26T04:25:40;100304.53;;;21.67;32.64
72024;BME280;59889;50.700;5.440;2023-04-26T04:28:05;100305.70;;;21.51;32.55
72024;BME280;59889;50.700;5.440;2023-04-26T04:30:30;100308.64;;;21.42;32.66
72024;BME280;59889;50.700;5.440;2023-04-26T04:32:55;100318.26;;;21.31;32.79
72024;BME280;59889;50.700;5.440;2023-04-26T04:35:21;100321.18;;;21.30;32.81
72024;BME280;59889;50.700;5.440;2023-04-26T04:37:45;100323.60;;;21.38;32.67
72024;BME280;59889;50.700;5.440;2023-04-26T04:40:11;100323.14;;;21.06;33.03
72024;BME280;59889;50.700;5.440;2023-04-26T04:42:35;100324.60;;;21.30;32.79
72024;BME280;59889;50.700;5.440;2023-04-26T04:45:00;100326.46;;;21.13;32.52
72024;BME280;59889;50.700;5.440;2023-04-26T04:47:25;100327.96;;;21.27;32.17
72024;BME280;59889;50.700;5.440;2023-04-26T04:49:50;100333.68;;;20.62;32.06
72024;BME280;59889;50.700;5.440;2023-04-26T04:52:15;100334.48;;;20.97;31.47
72024;BME280;59889;50.700;5.440;2023-04-26T04:54:40;100333.61;;;20.59;31.19
72024;BME280;59889;50.700;5.440;2023-04-26T04:57:05;100337.62;;;20.74;31.23
72024;BME280;59889;50.700;5.440;2023-04-26T04:59:31;100334.01;;;20.56;30.94
72024;BME280;59889;50.700;5.440;2023-04-26T05:01:56;100328.26;;;21.05;30.78
72024;BME280;59889;50.700;5.440;2023-04-26T05:04:21;100325.42;;;20.89;30.55
72024;BME280;59889;50.700;5.440;2023-04-26T05:06:46;100323.38;;;20.78;30.54
72024;BME280;59889;50.700;5.440;2023-04-26T05:09:11;100323.44;;;20.87;30.09
72024;BME280;59889;50.700;5.440;2023-04-26T05:11:36;100326.37;;;20.62;30.00
72024;BME280;59889;50.700;5.440;2023-04-26T05:14:01;100329.11;;;21.06;30.10
72024;BME280;59889;50.700;5.440;2023-04-26T05:16:26;100327.47;;;20.99;29.82
72024;BME280;59889;50.700;5.440;2023-04-26T05:18:52;100328.85;;;21.29;29.73
72024;BME280;59889;50.700;5.440;2023-04-26T05:21:16;100326.64;;;20.98;29.77
72024;BME280;59889;50.700;5.440;2023-04-26T05:23:41;100325.20;;;21.21;29.64
72024;BME280;59889;50.700;5.440;2023-04-26T05:26:07;100327.24;;;20.75;29.59
72024;BME280;59889;50.700;5.440;2023-04-26T05:28:32;100331.80;;;21.22;29.48
72024;BME280;59889;50.700;5.440;2023-04-26T05:30:57;100331.94;;;20.77;29.44
72024;BME280;59889;50.700;5.440;2023-04-26T05:33:22;100331.43;;;20.74;29.45
72024;BME280;59889;50.700;5.440;2023-04-26T05:35:47;100333.73;;;21.02;29.36
72024;BME280;59889;50.700;5.440;2023-04-26T05:38:12;100333.13;;;20.69;29.41
72024;BME280;59889;50.700;5.440;2023-04-26T05:40:37;100331.75;;;21.24;29.25
72024;BME280;59889;50.700;5.440;2023-04-26T05:43:03;100334.61;;;20.93;29.26
72024;BME280;59889;50.700;5.440;2023-04-26T05:45:27;100336.80;;;20.71;29.17
72024;BME280;59889;50.700;5.440;2023-04-26T05:47:53;100342.69;;;21.16;29.36
72024;BME280;59889;50.700;5.440;2023-04-26T05:50:18;100348.13;;;20.84;29.48
72024;BME280;59889;50.700;5.440;2023-04-26T05:52:43;100346.46;;;21.13;29.56
72024;BME280;59889;50.700;5.440;2023-04-26T05:55:09;100343.79;;;20.77;29.55
72024;BME280;59889;50.700;5.440;2023-04-26T05:57:33;100345.02;;;20.87;29.28
72024;BME280;59889;50.700;5.440;2023-04-26T05:59:58;100345.27;;;20.83;29.29
72024;BME280;59889;50.700;5.440;2023-04-26T06:02:24;100344.50;;;21.34;29.31
72024;BME280;59889;50.700;5.440;2023-04-26T06:04:48;100341.15;;;21.02;29.67
72024;BME280;59889;50.700;5.440;2023-04-26T06:07:13;100344.86;;;21.21;29.82
72024;BME280;59889;50.700;5.440;2023-04-26T06:09:39;100348.93;;;20.82;29.91
72024;BME280;59889;50.700;5.440;2023-04-26T06:12:04;100353.33;;;21.36;29.93
72024;BME280;59889;50.700;5.440;2023-04-26T06:14:29;100354.50;;;20.82;30.12
72024;BME280;59889;50.700;5.440;2023-04-26T06:16:54;100353.31;;;21.13;30.13
72024;BME280;59889;50.700;5.440;2023-04-26T06:19:19;100353.36;;;20.82;30.26
72024;BME280;59889;50.700;5.440;2023-04-26T06:21:44;100357.80;;;21.07;30.42
72024;BME280;59889;50.700;5.440;2023-04-26T06:24:09;100359.72;;;21.30;30.57
72024;BME280;59889;50.700;5.440;2023-04-26T06:26:34;100362.44;;;20.88;30.65
72024;BME280;59889;50.700;5.440;2023-04-26T06:28:59;100367.75;;;21.18;30.94
72024;BME280;59889;50.700;5.440;2023-04-26T06:31:25;100366.08;;;20.99;30.71
72024;BME280;59889;50.700;5.440;2023-04-26T06:33:50;100369.69;;;20.91;30.85
72024;BME280;59889;50.700;5.440;2023-04-26T06:36:15;100374.00;;;20.99;30.81
72024;BME280;59889;50.700;5.440;2023-04-26T06:38:40;100376.23;;;21.17;30.93
72024;BME280;59889;50.700;5.440;2023-04-26T06:41:05;100374.14;;;20.95;30.97
72024;BME280;59889;50.700;5.440;2023-04-26T06:43:30;100373.43;;;21.16;31.04
72024;BME280;59889;50.700;5.440;2023-04-26T06:45:55;100378.44;;;21.15;31.09
72024;BME280;59889;50.700;5.440;2023-04-26T06:48:20;100385.10;;;20.98;31.27
72024;BME280;59889;50.700;5.440;2023-04-26T06:50:45;100385.19;;;20.99;31.36
72024;BME280;59889;50.700;5.440;2023-04-26T06:53:10;100384.12;;;21.01;31.16
72024;BME280;59889;50.700;5.440;2023-04-26T06:55:35;100384.79;;;21.20;31.25
72024;BME280;59889;50.700;5.440;2023-04-26T06:58:00;100386.27;;;21.43;31.33
72024;BME280;59889;50.700;5.440;2023-04-26T07:00:25;100392.06;;;21.17;31.36
72024;BME280;59889;50.700;5.440;2023-04-26T07:02:51;100391.77;;;21.05;31.23
72024;BME280;59889;50.700;5.440;2023-04-26T07:05:16;100400.15;;;21.09;31.49
72024;BME280;59889;50.700;5.440;2023-04-26T07:07:41;100399.05;;;20.92;31.45
72024;BME280;59889;50.700;5.440;2023-04-26T07:10:07;100395.24;;;21.14;31.47
72024;BME280;59889;50.700;5.440;2023-04-26T07:12:31;100391.59;;;21.07;31.58
72024;BME280;59889;50.700;5.440;2023-04-26T07:14:56;100393.13;;;21.17;31.49
72024;BME280;59889;50.700;5.440;2023-04-26T07:17:21;100391.67;;;21.12;31.56
72024;BME280;59889;50.700;5.440;2023-04-26T07:19:46;100387.77;;;21.38;31.55
72024;BME280;59889;50.700;5.440;2023-04-26T07:22:11;100383.01;;;21.43;31.53
72024;BME280;59889;50.700;5.440;2023-04-26T07:24:36;100378.06;;;20.92;31.59
72024;BME280;59889;50.700;5.440;2023-04-26T07:27:01;100374.30;;;21.10;31.65
72024;BME280;59889;50.700;5.440;2023-04-26T07:29:26;100369.23;;;21.12;31.64
72024;BME280;59889;50.700;5.440;2023-04-26T07:31:51;100366.84;;;21.34;31.70
72024;BME280;59889;50.700;5.440;2023-04-26T07:34:17;100370.93;;;21.28;31.76
72024;BME280;59889;50.700;5.440;2023-04-26T07:36:42;100365.04;;;20.90;31.67
72024;BME280;59889;50.700;5.440;2023-04-26T07:39:07;100369.18;;;21.00;31.83
72024;BME280;59889;50.700;5.440;2023-04-26T07:41:32;100362.43;;;21.39;31.69
72024;BME280;59889;50.700;5.440;2023-04-26T07:43:57;100357.33;;;20.88;31.76
72024;BME280;59889;50.700;5.440;2023-04-26T07:46:22;100356.45;;;20.91;31.72
72024;BME280;59889;50.700;5.440;2023-04-26T07:48:47;100360.48;;;21.46;31.66
72024;BME280;59889;50.700;5.440;2023-04-26T07:51:12;100361.85;;;21.00;31.64
72024;BME280;59889;50.700;5.440;2023-04-26T07:53:37;100363.18;;;21.02;31.63
72024;BME280;59889;50.700;5.440;2023-04-26T07:56:03;100359.51;;;20.97;31.67
72024;BME280;59889;50.700;5.440;2023-04-26T07:58:27;100356.21;;;21.23;31.68
72024;BME280;59889;50.700;5.440;2023-04-26T08:00:52;100359.56;;;21.17;31.75
72024;BME280;59889;50.700;5.440;2023-04-26T08:03:17;100364.09;;;21.02;31.65
72024;BME280;59889;50.700;5.440;2023-04-26T08:05:43;100369.48;;;21.01;31.66
72024;BME280;59889;50.700;5.440;2023-04-26T08:08:07;100370.27;;;21.00;31.67
72024;BME280;59889;50.700;5.440;2023-04-26T08:10:33;100373.33;;;20.92;31.80
72024;BME280;59889;50.700;5.440;2023-04-26T08:12:58;100373.36;;;21.12;31.59
72024;BME280;59889;50.700;5.440;2023-04-26T08:15:23;100371.13;;;21.09;31.63
72024;BME280;59889;50.700;5.440;2023-04-26T08:17:48;100368.68;;;21.13;31.60
72024;BME280;59889;50.700;5.440;2023-04-26T08:20:13;100368.84;;;21.38;31.60
72024;BME280;59889;50.700;5.440;2023-04-26T08:22:38;100370.42;;;21.37;31.54
72024;BME280;59889;50.700;5.440;2023-04-26T08:25:04;100373.04;;;21.40;31.51
72024;BME280;59889;50.700;5.440;2023-04-26T08:27:28;100371.50;;;21.04;31.71
72024;BME280;59889;50.700;5.440;2023-04-26T08:29:53;100375.62;;;20.81;29.79
72024;BME280;59889;50.700;5.440;2023-04-26T08:32:18;100367.30;;;21.17;29.76
72024;BME280;59889;50.700;5.440;2023-04-26T08:34:43;100362.17;;;21.11;30.53
72024;BME280;59889;50.700;5.440;2023-04-26T08:37:09;100362.48;;;21.26;30.75
72024;BME280;59889;50.700;5.440;2023-04-26T08:39:33;100369.67;;;21.67;31.00
72024;BME280;59889;50.700;5.440;2023-04-26T08:42:04;100370.51;;;21.18;30.95
72024;BME280;59889;50.700;5.440;2023-04-26T08:44:24;100366.97;;;21.57;31.18
72024;BME280;59889;50.700;5.440;2023-04-26T08:46:54;100360.75;;;21.13;31.17
72024;BME280;59889;50.700;5.440;2023-04-26T08:49:21;100358.17;;;21.15;31.28
72024;BME280;59889;50.700;5.440;2023-04-26T08:51:39;100360.66;;;21.21;31.51
72024;BME280;59889;50.700;5.440;2023-04-26T08:54:04;100363.28;;;21.21;31.87
72024;BME280;59889;50.700;5.440;2023-04-26T08:56:29;100365.42;;;21.40;32.05
72024;BME280;59889;50.700;5.440;2023-04-26T08:58:54;100366.17;;;21.19;32.21
72024;BME280;59889;50.700;5.440;2023-04-26T09:01:20;100361.55;;;21.22;32.31
72024;BME280;59889;50.700;5.440;2023-04-26T09:03:44;100365.37;;;21.19;32.42
72024;BME280;59889;50.700;5.440;2023-04-26T09:06:10;100368.07;;;21.15;32.45
72024;BME280;59889;50.700;5.440;2023-04-26T09:08:35;100365.57;;;21.39;32.40
72024;BME280;59889;50.700;5.440;2023-04-26T09:11:02;100361.04;;;21.48;32.30
72024;BME280;59889;50.700;5.440;2023-04-26T09:13:27;100355.00;;;21.18;32.32
72024;BME280;59889;50.700;5.440;2023-04-26T09:15:50;100354.97;;;21.21;32.28
72024;BME280;59889;50.700;5.440;2023-04-26T09:18:17;100354.83;;;21.26;32.21
72024;BME280;59889;50.700;5.440;2023-04-26T09:20:42;100348.44;;;21.39;32.32
72024;BME280;59889;50.700;5.440;2023-04-26T09:23:07;100344.95;;;21.56;32.12
72024;BME280;59889;50.700;5.440;2023-04-26T09:25:32;100341.27;;;21.78;32.10
72024;BME280;59889;50.700;5.440;2023-04-26T09:27:57;100344.78;;;21.51;32.11
72024;BME280;59889;50.700;5.440;2023-04-26T09:30:22;100348.33;;;21.44;31.91
72024;BME280;59889;50.700;5.440;2023-04-26T09:32:50;100350.78;;;21.27;32.10
72024;BME280;59889;50.700;5.440;2023-04-26T09:35:21;100346.26;;;21.41;31.93
72024;BME280;59889;50.700;5.440;2023-04-26T09:37:37;100340.03;;;21.42;31.91
72024;BME280;59889;50.700;5.440;2023-04-26T09:40:02;100344.83;;;21.41;31.92
72024;BME280;59889;50.700;5.440;2023-04-26T09:42:27;100346.38;;;21.38;31.94
72024;BME280;59889;50.700;5.440;2023-04-26T09:44:52;100341.91;;;21.28;32.06
72024;BME280;59889;50.700;5.440;2023-04-26T09:47:20;100339.41;;;21.43;31.88
72024;BME280;59889;50.700;5.440;2023-04-26T09:49:44;100342.35;;;21.44;31.86
72024;BME280;59889;50.700;5.440;2023-04-26T09:52:07;100343.63;;;21.57;31.96
72024;BME280;59889;50.700;5.440;2023-04-26T09:54:40;100344.59;;;21.32;31.95
72024;BME280;59889;50.700;5.440;2023-04-26T09:56:58;100343.09;;;21.38;31.88
72024;BME280;59889;50.700;5.440;2023-04-26T09:59:23;100347.46;;;21.40;31.85
72024;BME280;59889;50.700;5.440;2023-04-26T10:01:48;100343.68;;;21.49;31.75
72024;BME280;59889;50.700;5.440;2023-04-26T10:04:13;100339.17;;;21.35;31.89
72024;BME280;59889;50.700;5.440;2023-04-26T10:06:38;100338.48;;;21.50;31.75
72024;BME280;59889;50.700;5.440;2023-04-26T10:09:03;100338.74;;;21.38;31.90
72024;BME280;59889;50.700;5.440;2023-04-26T10:11:28;100333.75;;;21.39;31.95
72024;BME280;59889;50.700;5.440;2023-04-26T10:13:53;100334.79;;;21.21;32.04
72024;BME280;59889;50.700;5.440;2023-04-26T10:16:19;100337.86;;;21.50;32.14
72024;BME280;59889;50.700;5.440;2023-04-26T10:18:43;100335.17;;;21.62;32.30
72024;BME280;59889;50.700;5.440;2023-04-26T10:21:11;100327.73;;;21.99;32.13
72024;BME280;59889;50.700;5.440;2023-04-26T10:23:33;100321.14;;;21.70;32.20
72024;BME280;59889;50.700;5.440;2023-04-26T10:25:58;100322.38;;;21.60;32.34
72024;BME280;59889;50.700;5.440;2023-04-26T10:30:54;100322.12;;;21.56;32.12
72024;BME280;59889;50.700;5.440;2023-04-26T10:33:13;100320.63;;;21.52;32.16
72024;BME280;59889;50.700;5.440;2023-04-26T10:38:08;100324.69;;;21.50;32.17
72024;BME280;59889;50.700;5.440;2023-04-26T10:40:30;100322.57;;;21.58;32.09
72024;BME280;59889;50.700;5.440;2023-04-26T10:45:25;100323.38;;;21.62;32.06
72024;BME280;59889;50.700;5.440;2023-04-26T10:47:44;100321.66;;;21.52;32.14
72024;BME280;59889;50.700;5.440;2023-04-26T10:50:10;100320.64;;;21.87;32.03
72024;BME280;59889;50.700;5.440;2023-04-26T10:52:34;100309.63;;;21.54;32.08
72024;BME280;59889;50.700;5.440;2023-04-26T10:54:59;100308.90;;;21.67;31.93
72024;BME280;59889;50.700;5.440;2023-04-26T11:02:14;100302.76;;;21.65;31.87
72024;BME280;59889;50.700;5.440;2023-04-26T11:04:50;100298.45;;;21.77;31.71
72024;BME280;59889;50.700;5.440;2023-04-26T11:07:04;100297.65;;;21.70;31.76
72024;BME280;59889;50.700;5.440;2023-04-26T11:09:34;100293.33;;;21.63;31.80
72024;BME280;59889;50.700;5.440;2023-04-26T11:11:54;100290.67;;;21.65;31.76
72024;BME280;59889;50.700;5.440;2023-04-26T11:14:21;100292.49;;;21.62;31.78
72024;BME280;59889;50.700;5.440;2023-04-26T11:16:45;100292.61;;;21.61;31.81
72024;BME280;59889;50.700;5.440;2023-04-26T11:19:10;100289.46;;;21.55;31.86
72024;BME280;59889;50.700;5.440;2023-04-26T11:21:35;100285.56;;;21.57;31.86
72024;BME280;59889;50.700;5.440;2023-04-26T11:24:00;100284.25;;;21.58;31.83
72024;BME280;59889;50.700;5.440;2023-04-26T11:26:31;100280.02;;;21.54;31.85
72024;BME280;59889;50.700;5.440;2023-04-26T11:28:50;100279.65;;;21.55;31.86
72024;BME280;59889;50.700;5.440;2023-04-26T11:31:17;100281.10;;;21.74;31.90
72024;BME280;59889;50.700;5.440;2023-04-26T11:33:40;100278.39;;;21.52;31.88
72024;BME280;59889;50.700;5.440;2023-04-26T11:36:05;100276.73;;;21.56;31.84
72024;BME280;59889;50.700;5.440;2023-04-26T11:38:30;100281.43;;;21.60;31.80
72024;BME280;59889;50.700;5.440;2023-04-26T11:40:56;100279.80;;;21.55;31.83
72024;BME280;59889;50.700;5.440;2023-04-26T11:43:20;100278.27;;;21.52;31.86
72024;BME280;59889;50.700;5.440;2023-04-26T11:45:45;100277.80;;;21.53;31.81
72024;BME280;59889;50.700;5.440;2023-04-26T11:48:11;100276.29;;;21.60;31.73
72024;BME280;59889;50.700;5.440;2023-04-26T11:50:36;100273.84;;;21.55;31.77
72024;BME280;59889;50.700;5.440;2023-04-26T11:53:03;100273.28;;;21.88;31.67
72024;BME280;59889;50.700;5.440;2023-04-26T11:55:27;100272.76;;;21.40;31.68
72024;BME280;59889;50.700;5.440;2023-04-26T11:57:51;100269.36;;;21.62;31.68
72024;BME280;59889;50.700;5.440;2023-04-26T12:00:16;100272.26;;;21.58;31.70
72024;BME280;59889;50.700;5.440;2023-04-26T12:02:44;100272.56;;;21.56;31.70
72024;BME280;59889;50.700;5.440;2023-04-26T12:05:07;100270.42;;;21.53;31.73
72024;BME280;59889;50.700;5.440;2023-04-26T12:07:34;100265.38;;;21.77;31.70
72024;BME280;59889;50.700;5.440;2023-04-26T12:09:56;100266.14;;;21.54;31.67
72024;BME280;59889;50.700;5.440;2023-04-26T12:12:22;100264.43;;;21.53;31.71
72024;BME280;59889;50.700;5.440;2023-04-26T12:14:46;100261.65;;;21.60;31.65
72024;BME280;59889;50.700;5.440;2023-04-26T12:17:14;100258.34;;;21.78;31.69
72024;BME280;59889;50.700;5.440;2023-04-26T12:19:38;100260.18;;;21.56;31.66
72024;BME280;59889;50.700;5.440;2023-04-26T12:22:01;100265.97;;;21.63;31.61
72024;BME280;59889;50.700;5.440;2023-04-26T12:24:28;100263.85;;;21.30;31.97
72024;BME280;59889;50.700;5.440;2023-04-26T12:26:52;100263.21;;;21.48;31.82
72024;BME280;59889;50.700;5.440;2023-04-26T12:29:16;100266.23;;;21.52;31.78
72024;BME280;59889;50.700;5.440;2023-04-26T12:31:42;100266.79;;;21.54;31.83
72024;BME280;59889;50.700;5.440;2023-04-26T12:34:07;100263.17;;;21.55;31.88
72024;BME280;59889;50.700;5.440;2023-04-26T12:36:32;100260.14;;;21.82;31.91
72024;BME280;59889;50.700;5.440;2023-04-26T12:38:57;100263.44;;;21.66;31.83
72024;BME280;59889;50.700;5.440;2023-04-26T12:41:22;100268.18;;;21.63;31.87
72024;BME280;59889;50.700;5.440;2023-04-26T12:43:47;100267.35;;;21.62;31.88
72024;BME280;59889;50.700;5.440;2023-04-26T12:46:12;100266.11;;;21.59;31.91
72024;BME280;59889;50.700;5.440;2023-04-26T12:48:37;100262.88;;;21.55;31.95
72024;BME280;59889;50.700;5.440;2023-04-26T12:51:02;100267.19;;;21.59;31.92